Time;durP1;ratioP1;P1;durP2;ratioP2;P2;SDS_P1;SDS_P2;PMS_P1;PMS_P2;Temp;Humidity;BMP_temperature;BMP_pressure;BME280_temperature;BME280_humidity;BME280_pressure;Samples;Min_cycle;Max_cycle;Signal;HPM_P1;HPM_P2
2022/08/18 00:02:01;;;;;;;13.40;11.07;;;21.60;36.80;;;;;;5106744;28;20471;-72
2022/08/18 00:04:28;;;;;;;14.17;11.40;;;21.50;36.80;;;;;;5109048;28;20457;-72
2022/08/18 00:06:55;;;;;;;11.97;10.67;;;21.50;37.00;;;;;;5111146;28;20843;-72
2022/08/18 00:09:22;;;;;;;13.63;12.10;;;21.50;36.80;;;;;;5110111;27;20479;-71
2022/08/18 00:11:50;;;;;;;14.70;11.63;;;21.50;37.10;;;;;;5110403;27;20451;-71
2022/08/18 00:14:19;;;;;;;16.00;10.77;;;21.50;36.90;;;;;;5110593;27;20455;-71
2022/08/18 00:16:46;;;;;;;11.63;8.83;;;21.50;37.00;;;;;;5105519;27;20542;-72
2022/08/18 00:19:13;;;;;;;14.17;8.77;;;21.50;37.00;;;;;;5110510;27;20475;-71
2022/08/18 00:21:40;;;;;;;23.03;10.83;;;21.50;36.60;;;;;;5109689;28;20470;-71
2022/08/18 00:24:07;;;;;;;13.00;9.90;;;21.50;36.70;;;;;;5107118;27;21080;-72
2022/08/18 00:26:34;;;;;;;11.97;9.40;;;21.50;36.90;;;;;;5111067;27;21245;-71
2022/08/18 00:29:02;;;;;;;11.37;8.73;;;21.50;36.80;;;;;;5111033;27;20479;-71
2022/08/18 00:31:30;;;;;;;11.67;9.30;;;21.40;37.20;;;;;;5110506;27;20837;-71
2022/08/18 00:33:57;;;;;;;15.70;9.60;;;21.40;36.90;;;;;;5090710;22;20489;-68
2022/08/18 00:36:23;;;;;;;11.13;9.87;;;21.40;36.70;;;;;;5047603;28;20453;-67
2022/08/18 00:38:50;;;;;;;12.30;9.50;;;21.30;37.10;;;;;;5050192;28;20450;-67
2022/08/18 00:41:17;;;;;;;13.50;9.90;;;21.30;37.10;;;;;;5050450;28;20450;-67
2022/08/18 00:43:48;;;;;;;12.10;10.80;;;21.30;37.20;;;;;;5046453;28;20477;-68
2022/08/18 00:46:18;;;;;;;13.03;11.40;;;21.30;37.20;;;;;;5045612;28;20481;-68
2022/08/18 00:48:46;;;;;;;12.13;10.87;;;21.30;37.10;;;;;;5047896;28;20454;-68
2022/08/18 00:51:18;;;;;;;12.97;11.30;;;21.30;37.00;;;;;;5048072;28;20470;-68
2022/08/18 00:53:50;;;;;;;12.03;10.77;;;21.30;36.70;;;;;;5048196;28;20478;-68
2022/08/18 00:56:24;;;;;;;13.37;11.97;;;21.30;36.80;;;;;;5049986;28;20458;-68
2022/08/18 00:58:55;;;;;;;14.10;11.40;;;21.30;37.20;;;;;;5046758;28;20473;-68
2022/08/18 01:01:26;;;;;;;13.83;11.73;;;21.30;37.30;;;;;;5053659;28;20484;-68
2022/08/18 01:03:59;;;;;;;16.20;11.53;;;21.20;37.50;;;;;;5068326;28;20484;-67
2022/08/18 01:06:31;;;;;;;13.73;11.73;;;21.20;37.20;;;;;;5062611;28;20481;-67
2022/08/18 01:08:58;;;;;;;17.13;12.53;;;21.20;36.90;;;;;;5063060;28;20988;-67
2022/08/18 01:11:25;;;;;;;14.93;13.00;;;21.20;37.40;;;;;;5066248;28;20466;-67
2022/08/18 01:13:53;;;;;;;17.10;12.60;;;21.20;37.10;;;;;;5066580;28;20473;-67
2022/08/18 01:21:55;;;;;;;14.47;12.97;;;21.10;37.00;;;;;;5066159;28;20954;-67
2022/08/18 01:25:58;;;;;;;15.13;13.20;;;21.10;37.20;;;;;;5066209;28;20492;-67
2022/08/18 01:27:16;;;;;;;17.23;12.57;;;21.10;37.20;;;;;;5064775;28;20473;-67
2022/08/18 01:29:44;;;;;;;19.10;14.20;;;21.00;37.10;;;;;;5069589;28;20769;-67
2022/08/18 01:32:15;;;;;;;16.00;13.23;;;21.00;37.50;;;;;;5066017;28;20480;-67
2022/08/18 01:34:46;;;;;;;16.13;13.90;;;21.00;37.50;;;;;;5066696;28;20485;-67
2022/08/18 01:37:15;;;;;;;13.50;12.10;;;20.90;38.00;;;;;;5068691;28;20458;-67
2022/08/18 01:39:43;;;;;;;16.73;13.60;;;20.90;37.90;;;;;;5065144;28;20449;-67
2022/08/18 01:42:10;;;;;;;16.03;13.17;;;20.80;38.10;;;;;;5062123;28;20809;-67
2022/08/18 01:44:39;;;;;;;15.90;13.50;;;20.80;38.20;;;;;;5066017;28;20488;-67
2022/08/18 01:47:06;;;;;;;15.03;13.10;;;20.80;38.10;;;;;;5066937;28;20907;-68
2022/08/18 01:49:33;;;;;;;14.77;13.07;;;20.70;38.30;;;;;;5066296;28;20465;-67
2022/08/18 01:51:59;;;;;;;17.87;13.30;;;20.60;38.10;;;;;;5066292;28;20468;-67
2022/08/18 01:54:29;;;;;;;15.93;12.00;;;20.60;38.00;;;;;;5068204;28;20480;-67
2022/08/18 01:56:57;;;;;;;15.07;13.57;;;20.60;38.10;;;;;;5064553;28;20462;-68
2022/08/18 01:59:24;;;;;;;17.07;12.60;;;20.50;38.50;;;;;;5070432;28;20465;-67
2022/08/18 02:01:54;;;;;;;19.43;15.10;;;20.50;38.40;;;;;;5062563;28;20489;-67
2022/08/18 02:04:26;;;;;;;18.80;15.00;;;20.50;38.50;;;;;;5060120;28;20508;-66
2022/08/18 02:06:52;;;;;;;16.90;15.07;;;20.50;38.90;;;;;;5066058;28;20477;-67
2022/08/18 02:09:19;;;;;;;17.93;15.23;;;20.50;38.80;;;;;;5067023;28;20961;-67
2022/08/18 02:11:46;;;;;;;17.50;14.97;;;20.40;38.90;;;;;;5064591;28;20457;-67
2022/08/18 02:14:14;;;;;;;15.70;14.00;;;20.40;39.00;;;;;;5063504;28;21226;-68
2022/08/18 02:16:41;;;;;;;16.57;14.77;;;20.40;39.00;;;;;;5068385;28;21225;-68
2022/08/18 02:19:07;;;;;;;15.33;12.83;;;20.30;39.20;;;;;;5059561;28;20461;-67
2022/08/18 02:21:34;;;;;;;15.77;13.30;;;20.30;39.50;;;;;;5057818;28;20457;-68
2022/08/18 02:24:01;;;;;;;16.43;12.83;;;20.20;39.10;;;;;;5061350;28;20477;-71
2022/08/18 02:26:28;;;;;;;16.03;12.60;;;20.20;39.00;;;;;;5065961;28;20474;-67
2022/08/18 02:28:55;;;;;;;14.90;12.43;;;20.20;39.20;;;;;;5062570;28;20450;-67
2022/08/18 02:31:24;;;;;;;13.60;11.80;;;20.10;39.20;;;;;;5063892;28;20461;-67
2022/08/18 02:33:52;;;;;;;14.00;11.57;;;20.10;39.30;;;;;;5062388;28;20496;-67
2022/08/18 02:36:19;;;;;;;13.80;11.90;;;20.00;39.40;;;;;;5063087;28;20461;-67
2022/08/18 02:38:46;;;;;;;16.53;11.57;;;20.00;39.40;;;;;;5065187;28;20453;-67
2022/08/18 02:41:14;;;;;;;14.40;10.83;;;20.00;39.30;;;;;;5060549;28;20456;-67
2022/08/18 02:43:42;;;;;;;14.43;11.30;;;19.90;39.20;;;;;;5067338;28;20477;-67
2022/08/18 02:46:10;;;;;;;12.00;9.57;;;19.90;39.50;;;;;;5061867;28;20552;-67
2022/08/18 02:48:38;;;;;;;13.00;9.90;;;19.90;40.10;;;;;;5066289;28;20461;-67
2022/08/18 02:51:07;;;;;;;12.17;10.20;;;19.80;39.40;;;;;;5066077;28;20472;-67
2022/08/18 02:53:35;;;;;;;11.93;10.50;;;19.80;39.60;;;;;;5059892;28;20984;-67
2022/08/18 02:56:21;;;;;;;12.20;10.07;;;19.80;39.40;;;;;;5067716;28;20476;-67
2022/08/18 02:58:52;;;;;;;15.83;10.17;;;19.80;39.30;;;;;;5060456;28;20920;-67
2022/08/18 03:01:19;;;;;;;11.40;9.80;;;19.80;39.10;;;;;;5067307;28;20472;-67
2022/08/18 03:03:47;;;;;;;12.00;10.23;;;19.80;39.20;;;;;;5063088;28;20472;-67
2022/08/18 03:06:14;;;;;;;11.50;9.57;;;19.70;39.50;;;;;;5056119;28;20970;-67
2022/08/18 03:08:41;;;;;;;15.23;10.80;;;19.70;39.60;;;;;;5061495;28;20457;-67
2022/08/18 03:11:08;;;;;;;15.33;10.33;;;19.70;39.50;;;;;;5062442;28;20469;-67
2022/08/18 03:13:35;;;;;;;13.30;10.70;;;19.70;39.70;;;;;;5057103;28;20476;-67
2022/08/18 03:16:02;;;;;;;14.30;11.50;;;19.70;40.00;;;;;;5063181;28;20457;-69
2022/08/18 03:18:29;;;;;;;13.57;12.17;;;19.70;40.30;;;;;;5066648;28;20460;-67
2022/08/18 03:20:58;;;;;;;13.17;11.13;;;19.70;40.30;;;;;;5062253;28;20460;-67
2022/08/18 03:23:25;;;;;;;13.50;11.70;;;19.70;41.00;;;;;;5067641;28;20515;-69
2022/08/18 03:25:51;;;;;;;11.97;10.40;;;19.70;40.90;;;;;;5064445;28;20460;-67
2022/08/18 03:28:18;;;;;;;13.53;12.10;;;19.80;40.50;;;;;;5065695;28;20504;-67
2022/08/18 03:30:45;;;;;;;15.03;12.53;;;19.80;40.20;;;;;;5057928;28;20771;-67
2022/08/18 03:33:12;;;;;;;15.30;11.43;;;19.70;39.90;;;;;;5057227;28;20851;-67
2022/08/18 03:35:40;;;;;;;12.80;11.50;;;19.70;39.70;;;;;;5065497;28;20453;-67
2022/08/18 03:38:08;;;;;;;16.30;12.20;;;19.70;39.60;;;;;;5065612;28;20457;-67
2022/08/18 03:40:35;;;;;;;13.37;11.97;;;19.70;39.70;;;;;;5064328;28;20468;-67
2022/08/18 03:43:05;;;;;;;13.00;11.30;;;19.70;40.20;;;;;;5060978;28;20484;-66
2022/08/18 03:45:33;;;;;;;14.50;12.90;;;19.80;39.80;;;;;;5064570;28;20926;-66
2022/08/18 03:48:00;;;;;;;15.47;13.33;;;19.80;39.90;;;;;;5063341;28;20473;-66
2022/08/18 03:50:27;;;;;;;14.60;12.90;;;19.80;39.70;;;;;;5066815;28;20984;-66
2022/08/18 03:52:54;;;;;;;14.03;12.53;;;19.80;39.50;;;;;;5061544;28;20466;-67
2022/08/18 03:55:22;;;;;;;15.70;13.10;;;19.80;39.40;;;;;;5058232;28;20875;-67
2022/08/18 03:57:51;;;;;;;15.07;13.43;;;19.80;39.20;;;;;;5060672;28;20503;-67
2022/08/18 04:00:18;;;;;;;16.83;13.97;;;19.90;38.90;;;;;;5063842;28;20456;-67
2022/08/18 04:02:45;;;;;;;16.27;13.97;;;19.90;38.70;;;;;;5059995;28;20461;-69
2022/08/18 04:05:12;;;;;;;15.47;13.70;;;19.80;38.60;;;;;;5066551;28;20460;-69
2022/08/18 04:07:39;;;;;;;15.93;14.23;;;19.80;38.50;;;;;;5062974;22;20940;-69
2022/08/18 04:10:07;;;;;;;19.97;13.70;;;19.80;38.50;;;;;;5086801;28;20459;-71
2022/08/18 04:12:35;;;;;;;17.80;15.77;;;19.70;38.50;;;;;;5082040;28;20483;-69
2022/08/18 04:15:03;;;;;;;15.80;14.20;;;19.70;38.40;;;;;;5078621;28;20479;-69
2022/08/18 04:17:31;;;;;;;16.97;14.77;;;19.60;38.30;;;;;;5081971;28;20563;-69
2022/08/18 04:19:58;;;;;;;16.50;14.73;;;19.60;38.50;;;;;;5081194;28;20456;-69
2022/08/18 04:22:25;;;;;;;15.93;14.23;;;19.60;38.70;;;;;;5081848;28;20576;-69
2022/08/18 04:24:52;;;;;;;21.50;14.90;;;19.50;38.70;;;;;;5046831;22;21015;-63
2022/08/18 04:27:20;;;;;;;16.33;14.60;;;19.50;38.70;;;;;;4981213;28;20546;-63
2022/08/18 04:29:49;;;;;;;20.33;14.97;;;19.50;39.00;;;;;;4975754;28;20474;-63
2022/08/18 04:32:16;;;;;;;17.10;14.93;;;19.40;39.00;;;;;;4982888;28;20487;-63
2022/08/18 04:34:43;;;;;;;18.20;14.83;;;19.40;39.00;;;;;;4978570;28;20477;-63
2022/08/18 04:37:10;;;;;;;18.43;15.37;;;19.40;39.40;;;;;;4979694;28;21007;-61
2022/08/18 04:39:38;;;;;;;17.83;13.97;;;19.40;39.30;;;;;;4979518;28;20468;-63
2022/08/18 04:42:05;;;;;;;19.60;15.47;;;19.40;39.10;;;;;;4976924;28;20887;-70
2022/08/18 04:44:31;;;;;;;16.87;14.37;;;19.40;39.10;;;;;;4980361;28;20488;-69
2022/08/18 04:47:01;;;;;;;19.10;15.20;;;19.50;39.30;;;;;;4980860;28;20472;-70
2022/08/18 04:49:29;;;;;;;19.67;15.80;;;19.50;39.20;;;;;;4984005;28;20467;-70
2022/08/18 04:54:40;;;;;;;13.87;12.40;;;19.60;39.50;;;;;;4980104;28;20525;-70
2022/08/18 04:57:10;;;;;;;14.87;12.97;;;19.70;39.40;;;;;;4977396;28;20469;-70
2022/08/18 04:59:39;;;;;;;15.23;12.13;;;19.80;39.00;;;;;;4981425;28;20465;-69
2022/08/18 05:02:08;;;;;;;14.23;10.40;;;19.90;38.70;;;;;;4978311;28;20527;-71
2022/08/18 05:04:36;;;;;;;13.57;11.37;;;20.00;38.40;;;;;;4977335;28;20492;-71
2022/08/18 05:07:03;;;;;;;13.47;10.63;;;20.20;37.70;;;;;;4980307;28;20480;-70
2022/08/18 05:09:32;;;;;;;11.13;9.80;;;20.30;37.10;;;;;;4979700;28;20464;-65
2022/08/18 05:11:59;;;;;;;11.60;9.40;;;20.50;36.60;;;;;;4976727;28;20469;-78
2022/08/18 05:14:26;;;;;;;11.33;9.70;;;20.70;36.30;;;;;;4982287;28;20547;-70
2022/08/18 05:16:53;;;;;;;11.00;8.60;;;21.10;35.90;;;;;;4975134;28;20461;-68
2022/08/18 05:19:22;;;;;;;12.60;9.17;;;21.50;34.80;;;;;;4977751;28;20475;-71
2022/08/18 05:21:49;;;;;;;11.40;8.57;;;22.00;33.20;;;;;;4980709;28;20469;-71
2022/08/18 05:24:16;;;;;;;10.77;9.40;;;22.40;32.00;;;;;;4980955;28;21491;-70
2022/08/18 05:26:44;;;;;;;10.97;8.03;;;22.80;30.10;;;;;;4981337;28;20465;-75
2022/08/18 05:29:12;;;;;;;10.23;8.43;;;23.20;28.70;;;;;;4981971;28;20474;-75
2022/08/18 05:31:39;;;;;;;11.63;9.10;;;23.80;26.60;;;;;;4981684;28;21169;-67
2022/08/18 05:34:06;;;;;;;15.07;10.97;;;23.90;25.30;;;;;;4975982;28;20513;-71
2022/08/18 05:37:04;;;;;;;13.57;9.70;;;23.80;24.60;;;;;;4973838;28;20477;-70
2022/08/18 05:39:39;;;;;;;12.70;9.93;;;23.40;25.30;;;;;;4985965;28;20454;-70
2022/08/18 05:42:16;;;;;;;12.60;10.60;;;23.10;25.60;;;;;;4980456;28;20961;-72
2022/08/18 05:44:46;;;;;;;11.30;9.87;;;22.90;26.40;;;;;;4981430;28;20489;-70
2022/08/18 05:47:19;;;;;;;11.50;10.30;;;22.70;27.10;;;;;;4980167;28;20461;-72
2022/08/18 05:49:47;;;;;;;13.63;10.70;;;22.60;27.60;;;;;;4978610;28;20473;-72
2022/08/18 05:52:19;;;;;;;13.10;10.20;;;22.70;28.10;;;;;;4980469;28;20472;-74
2022/08/18 05:57:42;;;;;;;13.27;10.30;;;24.50;23.70;;;;;;4947495;28;20653;-70
2022/08/18 06:00:10;;;;;;;12.37;10.97;;;24.70;21.50;;;;;;4980298;28;20964;-73
2022/08/18 06:02:44;;;;;;;14.80;10.07;;;24.40;21.50;;;;;;4977675;28;20481;-73
2022/08/18 06:05:15;;;;;;;14.10;10.27;;;24.20;21.80;;;;;;4976415;28;20483;-75
2022/08/18 06:07:51;;;;;;;12.10;10.80;;;23.90;22.30;;;;;;4977190;28;20500;-74
2022/08/18 06:10:17;;;;;;;10.40;9.27;;;23.60;23.10;;;;;;4980438;28;20467;-70
2022/08/18 06:12:48;;;;;;;10.90;8.90;;;23.40;23.70;;;;;;4977162;28;20460;-70
2022/08/18 06:15:18;;;;;;;12.97;9.40;;;23.10;24.40;;;;;;4981320;28;20485;-70
2022/08/18 06:18:14;;;;;;;10.80;8.67;;;22.90;25.80;;;;;;4978885;28;20476;-75
2022/08/18 06:20:55;;;;;;;12.40;10.00;;;22.70;25.50;;;;;;4980992;28;20491;-75
2022/08/18 06:23:34;;;;;;;11.07;9.40;;;22.50;26.10;;;;;;4972479;28;20465;-75
2022/08/18 06:26:09;;;;;;;10.33;8.57;;;22.30;26.70;;;;;;4974125;28;21126;-74
2022/08/18 06:28:51;;;;;;;12.00;9.00;;;22.10;27.70;;;;;;4976617;28;20536;-70
2022/08/18 06:31:22;;;;;;;10.37;9.20;;;21.90;28.40;;;;;;4976098;28;20488;-71
2022/08/18 06:34:02;;;;;;;12.07;10.20;;;21.90;28.70;;;;;;4979416;28;20548;-70
2022/08/18 06:36:39;;;;;;;10.80;8.87;;;21.80;29.60;;;;;;4972074;28;20947;-70
2022/08/18 06:39:15;;;;;;;14.33;9.43;;;21.70;30.40;;;;;;4975577;28;20472;-76
2022/08/18 06:41:47;;;;;;;12.70;9.80;;;21.80;30.50;;;;;;4976572;28;20464;-74
2022/08/18 06:44:20;;;;;;;10.37;9.10;;;21.80;30.60;;;;;;4978305;28;21023;-74
2022/08/18 06:46:53;;;;;;;11.20;9.40;;;21.90;30.70;;;;;;4978922;28;20472;-73
2022/08/18 06:49:35;;;;;;;11.20;10.00;;;22.00;30.60;;;;;;4973312;28;20468;-73
2022/08/18 06:52:24;;;;;;;12.10;9.63;;;22.10;30.70;;;;;;4973202;28;20465;-74
2022/08/18 06:54:54;;;;;;;12.07;9.90;;;22.10;31.00;;;;;;4974324;28;20846;-78
2022/08/18 06:57:32;;;;;;;12.70;10.27;;;22.10;30.90;;;;;;4977347;28;20462;-75
2022/08/18 07:00:02;;;;;;;11.87;10.43;;;22.20;30.70;;;;;;4968469;28;20458;-77
2022/08/18 07:02:43;;;;;;;13.67;10.80;;;22.30;30.50;;;;;;4979071;28;21175;-76
2022/08/18 07:05:19;;;;;;;12.53;11.23;;;22.20;30.80;;;;;;4974738;28;21034;-77
2022/08/18 07:08:02;;;;;;;14.83;12.60;;;22.30;31.00;;;;;;4978112;28;20531;-75
2022/08/18 07:10:33;;;;;;;17.20;12.47;;;22.30;30.80;;;;;;4980537;28;20471;-73
2022/08/18 07:13:19;;;;;;;13.77;12.23;;;22.40;30.70;;;;;;4975015;28;20523;-72
2022/08/18 07:15:48;;;;;;;13.07;11.67;;;22.40;30.80;;;;;;4974583;28;20489;-76
2022/08/18 07:18:22;;;;;;;17.30;14.10;;;22.50;30.60;;;;;;4968974;28;22431;-74
2022/08/18 07:20:52;;;;;;;13.93;11.67;;;22.60;30.60;;;;;;4973998;28;20544;-71
2022/08/18 07:23:26;;;;;;;17.03;14.77;;;22.60;30.10;;;;;;4977755;28;20881;-75
2022/08/18 07:26:04;;;;;;;16.73;14.20;;;22.60;30.00;;;;;;4971463;28;20591;-74
2022/08/18 07:28:33;;;;;;;15.00;13.40;;;22.60;29.90;;;;;;4977595;28;20465;-74
2022/08/18 07:31:19;;;;;;;15.80;12.67;;;22.60;29.60;;;;;;4977314;28;20476;-75
2022/08/18 07:33:55;;;;;;;14.30;12.80;;;22.60;29.50;;;;;;4977452;28;20457;-73
2022/08/18 07:36:24;;;;;;;27.20;18.73;;;22.60;29.40;;;;;;4972158;28;20493;-72
2022/08/18 07:38:56;;;;;;;25.10;18.13;;;22.60;29.50;;;;;;4976471;28;20480;-73
2022/08/18 07:41:30;;;;;;;15.53;13.70;;;22.60;29.70;;;;;;4978147;28;20465;-77
2022/08/18 07:44:05;;;;;;;15.50;13.70;;;22.60;30.10;;;;;;4975136;28;20480;-76
2022/08/18 07:46:38;;;;;;;32.90;20.73;;;22.60;30.00;;;;;;4979399;28;20466;-75
2022/08/18 07:49:06;;;;;;;19.00;15.83;;;22.60;30.50;;;;;;4973338;28;20465;-70
2022/08/18 07:51:46;;;;;;;21.20;18.40;;;22.60;30.90;;;;;;4972014;28;21068;-68
2022/08/18 07:54:21;;;;;;;26.87;19.37;;;22.60;30.80;;;;;;4978396;28;20554;-66
2022/08/18 07:56:54;;;;;;;28.27;21.40;;;22.60;30.80;;;;;;4975405;28;21017;-71
2022/08/18 07:59:25;;;;;;;29.73;23.17;;;22.60;31.10;;;;;;4975817;28;20481;-70
2022/08/18 08:02:03;;;;;;;22.90;19.47;;;22.50;31.10;;;;;;4979889;28;20476;-70
2022/08/18 08:04:38;;;;;;;20.07;17.80;;;22.50;31.10;;;;;;4970244;28;20496;-71
2022/08/18 08:07:10;;;;;;;22.67;18.00;;;22.50;31.30;;;;;;4978483;28;20461;-70
2022/08/18 08:09:46;;;;;;;21.10;17.97;;;22.50;31.60;;;;;;4972792;28;20603;-70
2022/08/18 08:12:25;;;;;;;20.07;17.97;;;22.60;31.40;;;;;;4982305;28;20472;-70
2022/08/18 08:15:00;;;;;;;19.30;16.73;;;22.70;31.50;;;;;;4974771;28;20477;-71
2022/08/18 08:17:34;;;;;;;22.30;18.60;;;23.00;31.30;;;;;;4981112;28;20471;-71
2022/08/18 08:20:12;;;;;;;22.87;19.27;;;23.60;31.40;;;;;;4978641;28;20480;-73
2022/08/18 08:22:52;;;;;;;20.23;17.27;;;25.40;28.30;;;;;;4982519;28;20469;-70
2022/08/18 08:25:24;;;;;;;16.80;14.57;;;28.20;22.50;;;;;;4976988;28;20880;-71
2022/08/18 08:28:06;;;;;;;17.80;13.63;;;31.70;14.90;;;;;;4980586;28;20548;-69
2022/08/18 08:30:40;;;;;;;18.53;14.67;;;32.90;8.90;;;;;;4979401;28;20481;-71
2022/08/18 08:33:24;;;;;;;15.97;13.53;;;33.20;8.70;;;;;;4982400;28;21009;-70
2022/08/18 08:35:56;;;;;;;19.20;17.20;;;32.80;8.50;;;;;;4983981;28;20480;-71
2022/08/18 08:38:31;;;;;;;16.37;14.50;;;32.60;8.40;;;;;;4986700;28;20481;-71
2022/08/18 08:41:02;;;;;;;16.10;14.40;;;33.20;8.70;;;;;;4979327;28;20836;-70
2022/08/18 08:43:34;;;;;;;13.73;12.33;;;35.00;6.10;;;;;;4981454;28;20461;-70
2022/08/18 08:46:12;;;;;;;14.67;13.33;;;37.50;3.60;;;;;;4983085;28;20547;-71
2022/08/18 08:48:44;;;;;;;15.23;13.67;;;40.40;1.00;;;;;;4980177;28;20461;-70
2022/08/18 08:51:27;;;;;;;14.00;12.50;;;42.60;1.00;;;;;;4984165;28;20465;-66
2022/08/18 08:54:01;;;;;;;13.73;12.43;;;44.90;1.00;;;;;;4979486;28;20480;-65
2022/08/18 08:56:33;;;;;;;13.77;12.50;;;46.70;1.00;;;;;;4982067;28;20464;-69
2022/08/18 08:59:05;;;;;;;13.53;12.33;;;46.20;1.00;;;;;;4976866;28;20492;-69
2022/08/18 09:01:37;;;;;;;11.30;10.17;;;45.70;1.00;;;;;;4976551;28;20497;-69
2022/08/18 09:04:22;;;;;;;13.07;11.90;;;44.70;1.00;;;;;;4978080;28;20480;-67
2022/08/18 09:06:57;;;;;;;13.47;12.17;;;45.20;1.00;;;;;;4979886;28;20465;-71
2022/08/18 09:09:56;;;;;;;12.30;11.20;;;46.80;1.00;;;;;;4974715;28;20456;-70
2022/08/18 09:12:40;;;;;;;13.30;11.97;;;46.30;1.00;;;;;;4977322;28;20492;-72
2022/08/18 09:15:32;;;;;;;13.40;11.90;;;44.40;1.00;;;;;;4977845;28;20486;-71
2022/08/18 09:18:32;;;;;;;12.50;11.30;;;42.50;1.00;;;;;;4978589;28;20472;-68
2022/08/18 09:21:11;;;;;;;11.20;10.00;;;40.80;1.00;;;;;;4979423;28;20845;-69
2022/08/18 09:23:43;;;;;;;10.57;9.47;;;39.60;1.00;;;;;;4977683;28;20457;-68
2022/08/18 09:26:26;;;;;;;9.60;8.63;;;39.00;1.00;;;;;;4978034;28;20464;-67
2022/08/18 09:28:57;;;;;;;12.07;9.80;;;38.80;1.00;;;;;;4978850;28;21014;-69
2022/08/18 09:31:26;;;;;;;11.03;9.83;;;38.50;1.00;;;;;;4979331;28;20477;-68
2022/08/18 09:34:30;;;;;;;11.60;10.10;;;38.90;1.00;;;;;;4978881;28;20476;-68
2022/08/18 09:37:16;;;;;;;10.47;9.37;;;40.80;1.00;;;;;;4975007;28;20465;-67
2022/08/18 09:42:38;;;;;;;8.53;7.60;;;42.80;1.00;;;;;;4979754;28;20452;-70
2022/08/18 09:45:09;;;;;;;8.63;7.40;;;43.60;1.00;;;;;;4977585;28;20482;-67
2022/08/18 09:48:00;;;;;;;8.07;7.27;;;44.90;1.00;;;;;;4980389;28;20461;-66
2022/08/18 09:50:51;;;;;;;7.13;6.43;;;46.00;1.00;;;;;;4978083;28;20460;-74
2022/08/18 09:53:36;;;;;;;7.70;6.90;;;47.60;1.00;;;;;;4981111;28;20473;-72
2022/08/18 09:56:04;;;;;;;6.97;6.27;;;49.30;1.00;;;;;;4983129;28;20491;-70
2022/08/18 09:58:57;;;;;;;8.27;6.10;;;50.40;1.00;;;;;;4981844;28;20484;-73
2022/08/18 10:01:42;;;;;;;7.00;6.30;;;51.40;1.00;;;;;;4984246;28;20848;-72
2022/08/18 10:04:31;;;;;;;8.70;7.70;;;50.70;1.00;;;;;;4978958;28;20481;-70
2022/08/18 10:07:30;;;;;;;10.03;9.13;;;49.10;1.00;;;;;;4982764;28;20453;-69
2022/08/18 10:10:12;;;;;;;9.37;8.30;;;48.30;1.00;;;;;;4979507;28;20457;-70
2022/08/18 10:13:03;;;;;;;7.90;6.30;;;47.90;1.00;;;;;;4978655;28;20576;-73
2022/08/18 10:15:45;;;;;;;6.83;6.13;;;48.10;1.00;;;;;;4974908;28;20485;-73
2022/08/18 10:18:39;;;;;;;7.10;6.00;;;49.40;1.00;;;;;;4978791;28;20467;-72
2022/08/18 10:21:17;;;;;;;6.73;5.60;;;50.70;1.00;;;;;;4970832;28;20461;-72
2022/08/18 10:23:49;;;;;;;6.13;5.53;;;51.30;1.00;;;;;;4976921;28;21215;-72
2022/08/18 10:27:08;;;;;;;9.93;5.47;;;51.50;1.00;;;;;;4978442;28;20821;-74
2022/08/18 10:29:54;;;;;;;6.50;5.10;;;49.30;1.00;;;;;;4978837;28;20460;-72
2022/08/18 10:32:45;;;;;;;8.17;4.70;;;49.10;1.00;;;;;;4974924;28;21174;-71
2022/08/18 10:35:53;;;;;;;5.50;5.00;;;47.50;1.00;;;;;;4978722;28;20566;-77
2022/08/18 10:38:39;;;;;;;5.47;4.93;;;46.10;1.00;;;;;;5041255;23;20502;-62
2022/08/18 10:41:13;;;;;;;6.13;5.23;;;44.60;1.00;;;;;;5021134;27;20942;-63
2022/08/18 10:43:43;;;;;;;5.90;5.23;;;43.80;1.00;;;;;;5021018;28;20516;-63
2022/08/18 10:46:22;;;;;;;6.90;6.20;;;42.90;1.00;;;;;;5041922;27;20456;-62
2022/08/18 10:49:08;;;;;;;5.73;5.13;;;42.20;1.00;;;;;;5003553;28;20507;-63
2022/08/18 10:51:48;;;;;;;5.73;5.13;;;41.30;1.00;;;;;;5003164;28;20932;-62
2022/08/18 10:54:27;;;;;;;6.30;5.37;;;40.70;1.00;;;;;;5009144;28;20468;-62
2022/08/18 10:56:59;;;;;;;5.87;4.80;;;40.10;1.00;;;;;;5003132;28;20487;-62
2022/08/18 10:59:31;;;;;;;7.40;5.20;;;39.70;1.00;;;;;;4995762;28;20962;-61
2022/08/18 11:02:09;;;;;;;7.17;5.27;;;39.30;1.00;;;;;;4997539;28;20479;-62
2022/08/18 11:04:42;;;;;;;9.00;5.63;;;38.70;1.00;;;;;;5003841;28;20468;-64
2022/08/18 11:07:13;;;;;;;7.20;5.50;;;38.20;1.00;;;;;;5010398;28;20484;-63
2022/08/18 11:09:43;;;;;;;6.70;5.00;;;37.70;1.00;;;;;;5001328;28;20958;-70
2022/08/18 11:12:13;;;;;;;6.60;5.90;;;37.30;1.00;;;;;;5002014;28;20471;-65
2022/08/18 11:15:06;;;;;;;7.70;6.73;;;36.80;1.00;;;;;;5008133;28;20462;-62
2022/08/18 11:17:45;;;;;;;6.60;5.90;;;36.20;1.00;;;;;;4998194;28;20889;-64
2022/08/18 11:20:14;;;;;;;7.87;6.60;;;35.60;1.00;;;;;;4997438;28;20479;-67
2022/08/18 11:22:50;;;;;;;7.33;6.20;;;35.20;1.00;;;;;;5000429;28;20519;-60
2022/08/18 11:25:25;;;;;;;7.30;6.00;;;34.80;1.00;;;;;;4998559;28;20863;-61
2022/08/18 11:27:52;;;;;;;6.60;5.50;;;34.60;1.00;;;;;;5002607;28;20486;-61
2022/08/18 11:30:20;;;;;;;9.83;6.33;;;34.60;1.00;;;;;;5008203;28;20464;-62
2022/08/18 11:32:49;;;;;;;7.93;6.27;;;34.50;1.00;;;;;;5005460;28;20452;-60
2022/08/18 11:35:20;;;;;;;8.00;5.77;;;34.30;1.00;;;;;;5001575;28;21008;-61
2022/08/18 11:37:50;;;;;;;7.27;6.57;;;33.80;1.30;;;;;;5003328;28;21069;-62
2022/08/18 11:40:33;;;;;;;7.30;6.03;;;33.30;2.30;;;;;;5007094;28;20481;-62
2022/08/18 11:43:03;;;;;;;7.00;6.30;;;33.00;2.90;;;;;;5001822;28;20470;-63
2022/08/18 11:45:34;;;;;;;8.20;7.13;;;32.90;2.90;;;;;;5003470;28;20452;-63
2022/08/18 11:48:10;;;;;;;8.90;5.90;;;32.90;3.00;;;;;;5009137;28;20562;-63
2022/08/18 11:50:47;;;;;;;6.67;5.87;;;32.90;3.10;;;;;;5007153;28;20456;-63
2022/08/18 11:53:21;;;;;;;7.40;6.60;;;32.60;3.30;;;;;;5008405;28;20458;-61
2022/08/18 11:56:04;;;;;;;8.97;6.50;;;32.30;3.70;;;;;;5001575;28;20452;-62
2022/08/18 11:58:44;;;;;;;8.37;6.87;;;32.20;3.80;;;;;;5004102;28;20604;-62
2022/08/18 12:01:12;;;;;;;7.80;6.30;;;31.90;4.10;;;;;;5003090;28;20479;-63
2022/08/18 12:03:43;;;;;;;8.37;7.57;;;31.70;4.50;;;;;;5000168;28;20476;-62
2022/08/18 12:06:18;;;;;;;9.77;6.23;;;31.50;4.30;;;;;;5006195;28;20559;-63
2022/08/18 12:08:58;;;;;;;7.57;6.77;;;31.40;4.60;;;;;;5005502;28;20513;-62
2022/08/18 12:11:29;;;;;;;7.47;6.70;;;31.40;5.20;;;;;;5001447;28;20546;-66
2022/08/18 12:14:03;;;;;;;7.83;7.03;;;31.50;5.50;;;;;;5004342;28;20459;-65
2022/08/18 12:16:38;;;;;;;9.33;7.00;;;31.60;5.60;;;;;;4999307;28;20457;-67
2022/08/18 12:19:06;;;;;;;7.73;6.93;;;31.70;5.80;;;;;;5001954;28;20467;-67
2022/08/18 12:21:36;;;;;;;13.43;7.00;;;31.80;5.10;;;;;;5000687;28;20464;-67
2022/08/18 12:24:04;;;;;;;8.67;6.87;;;31.70;5.30;;;;;;5004428;28;20991;-67
2022/08/18 12:26:32;;;;;;;7.37;6.60;;;31.70;5.80;;;;;;5008114;28;20478;-67
2022/08/18 12:28:59;;;;;;;8.93;7.37;;;31.70;5.70;;;;;;5007831;28;20488;-67
2022/08/18 12:31:26;;;;;;;8.10;7.20;;;31.80;5.70;;;;;;5004732;28;20471;-63
2022/08/18 12:33:53;;;;;;;9.50;7.60;;;31.80;5.80;;;;;;5006326;28;20466;-64
2022/08/18 12:36:19;;;;;;;8.50;7.23;;;31.70;5.70;;;;;;5009427;28;20470;-64
2022/08/18 12:38:46;;;;;;;9.17;8.00;;;31.70;6.10;;;;;;5008136;28;20491;-66
2022/08/18 12:41:14;;;;;;;9.17;6.77;;;31.70;6.20;;;;;;5001902;28;20979;-64
2022/08/18 12:43:42;;;;;;;7.83;6.30;;;31.80;6.80;;;;;;5004164;28;20517;-65
2022/08/18 12:46:10;;;;;;;7.87;6.63;;;31.80;6.40;;;;;;5006000;28;20496;-63
2022/08/18 12:48:38;;;;;;;9.20;6.63;;;31.80;6.50;;;;;;5022683;28;20518;-65
2022/08/18 12:51:06;;;;;;;10.30;7.03;;;31.80;6.10;;;;;;5004370;28;20456;-64
2022/08/18 12:53:32;;;;;;;8.03;7.23;;;31.80;6.10;;;;;;5003153;28;21191;-64
2022/08/18 12:56:00;;;;;;;8.50;7.00;;;31.70;5.90;;;;;;5000907;28;20463;-64
2022/08/18 12:58:28;;;;;;;7.90;7.07;;;31.50;6.20;;;;;;4999203;28;20475;-66
2022/08/18 13:00:56;;;;;;;7.77;6.50;;;31.20;5.60;;;;;;5010694;28;20480;-64
2022/08/18 13:03:23;;;;;;;7.70;6.40;;;31.00;6.10;;;;;;5001147;28;20551;-65
2022/08/18 13:05:50;;;;;;;9.93;7.37;;;30.80;5.70;;;;;;5008345;28;20460;-63
2022/08/18 13:08:19;;;;;;;7.90;6.90;;;30.60;5.60;;;;;;5003544;28;20479;-67
2022/08/18 13:10:47;;;;;;;8.37;7.47;;;30.30;6.50;;;;;;5001194;28;20574;-62
2022/08/18 13:13:15;;;;;;;8.93;8.07;;;30.20;6.70;;;;;;5000079;28;20483;-67
2022/08/18 13:15:42;;;;;;;8.17;7.03;;;30.10;6.70;;;;;;5017221;28;20507;-69
2022/08/18 13:18:10;;;;;;;8.73;7.40;;;30.00;6.80;;;;;;4998928;28;20494;-68
2022/08/18 13:20:38;;;;;;;10.23;8.40;;;30.00;7.30;;;;;;4996462;28;20492;-66